createdAt,value
2023-01-29T00:04:51.274Z,103230
2023-01-29T00:09:51.226Z,103230
2023-01-29T00:14:51.225Z,103240
2023-01-29T00:19:51.236Z,103220
2023-01-29T00:24:51.236Z,103210
2023-01-29T00:29:51.233Z,103200
2023-01-29T00:34:51.293Z,103190
2023-01-29T00:39:51.252Z,103180
2023-01-29T00:44:51.254Z,103170
2023-01-29T00:49:51.253Z,103190
2023-01-29T00:54:51.257Z,103190
2023-01-29T00:59:51.258Z,103170
2023-01-29T01:04:51.361Z,103180
2023-01-29T01:09:51.263Z,103180
2023-01-29T01:14:51.256Z,103180
2023-01-29T01:19:51.276Z,103180
2023-01-29T01:24:51.272Z,103170
2023-01-29T01:29:51.282Z,103160
2023-01-29T01:34:51.292Z,103160
2023-01-29T01:39:51.268Z,103160
2023-01-29T01:44:51.292Z,103170
2023-01-29T01:49:51.368Z,103180
2023-01-29T01:54:51.291Z,103180
2023-01-29T01:59:51.288Z,103190
2023-01-29T02:04:51.301Z,103190
2023-01-29T02:09:51.295Z,103190
2023-01-29T02:14:51.293Z,103190
2023-01-29T02:19:51.355Z,103180
2023-01-29T02:24:51.300Z,103180
2023-01-29T02:29:51.298Z,103190
2023-01-29T02:34:51.361Z,103190
2023-01-29T02:39:51.303Z,103190
2023-01-29T02:44:51.306Z,103200
2023-01-29T02:49:51.416Z,103200
2023-01-29T02:54:51.318Z,103200
2023-01-29T02:59:51.317Z,103210
2023-01-29T03:04:51.348Z,103200
2023-01-29T03:09:51.332Z,103190
2023-01-29T03:14:51.327Z,103190
2023-01-29T03:19:51.368Z,103180
2023-01-29T03:24:51.337Z,103170
2023-01-29T03:29:51.333Z,103150
2023-01-29T03:34:51.350Z,103140
2023-01-29T03:39:51.332Z,103140
2023-01-29T03:44:51.351Z,103150
2023-01-29T03:49:51.357Z,103130
2023-01-29T03:54:51.368Z,103120
2023-01-29T03:59:51.347Z,103110
2023-01-29T04:04:51.367Z,103120
2023-01-29T04:09:51.355Z,103110
2023-01-29T04:14:51.359Z,103110
2023-01-29T04:19:51.412Z,103090
2023-01-29T04:24:51.362Z,103080
2023-01-29T04:29:51.371Z,103100
2023-01-29T04:34:51.399Z,103100
2023-01-29T04:39:51.378Z,103100
2023-01-29T04:44:51.375Z,103100
2023-01-29T04:49:51.439Z,103090
2023-01-29T04:54:51.389Z,103090
2023-01-29T04:59:51.393Z,103080
2023-01-29T05:04:51.421Z,103080
2023-01-29T05:09:51.391Z,103080
2023-01-29T05:14:51.394Z,103080
2023-01-29T05:19:51.402Z,103080
2023-01-29T05:24:51.406Z,103080
2023-01-29T05:29:51.397Z,103080
2023-01-29T05:34:51.423Z,103090
2023-01-29T05:39:51.408Z,103110
2023-01-29T05:44:51.461Z,103110
2023-01-29T05:49:51.519Z,103100
2023-01-29T05:54:51.425Z,103090
2023-01-29T05:59:51.423Z,103060
2023-01-29T06:04:51.438Z,103060
2023-01-29T06:09:51.420Z,103070
2023-01-29T06:14:51.435Z,103050
2023-01-29T06:19:51.441Z,103050
2023-01-29T06:24:51.435Z,103050
2023-01-29T06:29:51.434Z,103040
2023-01-29T06:34:51.454Z,103040
2023-01-29T06:39:51.440Z,103040
2023-01-29T06:44:51.449Z,103050
2023-01-29T06:49:51.548Z,103040
2023-01-29T06:54:51.446Z,103030
2023-01-29T06:59:51.456Z,103030
2023-01-29T07:04:51.477Z,103030
2023-01-29T07:09:51.466Z,103030
2023-01-29T07:14:51.455Z,103030
2023-01-29T07:19:51.469Z,103030
2023-01-29T07:24:51.463Z,103030
2023-01-29T07:29:51.462Z,103050
2023-01-29T07:34:51.498Z,103050
2023-01-29T07:39:51.468Z,103040
2023-01-29T07:44:51.494Z,103030
2023-01-29T07:49:51.481Z,103030
2023-01-29T07:54:51.513Z,103010
2023-01-29T07:59:51.481Z,103010
2023-01-29T08:04:51.514Z,103010
2023-01-29T08:09:51.488Z,103000
2023-01-29T08:14:51.500Z,102990
2023-01-29T08:19:51.556Z,102990
2023-01-29T08:24:54.305Z,102990
2023-01-29T08:29:51.500Z,102980
2023-01-29T08:34:51.523Z,102960
2023-01-29T08:39:51.507Z,102950
2023-01-29T08:44:51.511Z,102960
2023-01-29T08:49:51.512Z,102960
2023-01-29T08:54:51.509Z,102960
2023-01-29T08:59:51.521Z,102960
2023-01-29T09:04:51.530Z,102960
2023-01-29T09:09:51.523Z,102950
2023-01-29T09:14:51.539Z,102940
2023-01-29T09:19:51.532Z,102930
2023-01-29T09:24:51.522Z,102930
2023-01-29T09:29:51.528Z,102940
2023-01-29T09:34:51.622Z,102940
2023-01-29T09:39:51.540Z,102950
2023-01-29T09:44:51.543Z,102950
2023-01-29T09:49:51.559Z,102940
2023-01-29T09:54:51.545Z,102950
2023-01-29T09:59:51.568Z,102940
2023-01-29T10:04:51.670Z,102950
2023-01-29T10:09:51.560Z,102940
2023-01-29T10:14:51.555Z,102940
2023-01-29T10:19:51.577Z,102930
2023-01-29T10:24:51.571Z,102920
2023-01-29T10:29:51.567Z,102910
2023-01-29T10:34:51.596Z,102910
2023-01-29T10:39:51.574Z,102900
2023-01-29T10:44:51.572Z,102900
2023-01-29T10:49:51.625Z,102890
2023-01-29T10:54:51.575Z,102890
2023-01-29T10:59:51.585Z,102880
2023-01-29T11:04:51.606Z,102880
2023-01-29T11:09:51.594Z,102870
2023-01-29T11:14:51.608Z,102860
2023-01-29T11:19:51.687Z,102860
2023-01-29T11:24:51.590Z,102840
2023-01-29T11:29:51.592Z,102830
2023-01-29T11:34:51.646Z,102830
2023-01-29T11:39:51.599Z,102830
2023-01-29T11:44:51.602Z,102820
2023-01-29T11:49:51.632Z,102830
2023-01-29T11:54:51.611Z,102820
2023-01-29T11:59:51.636Z,102800
2023-01-29T12:04:51.635Z,102800
2023-01-29T12:09:51.616Z,102790
2023-01-29T12:14:51.618Z,102780
2023-01-29T12:19:51.640Z,102770
2023-01-29T12:24:51.636Z,102770
2023-01-29T12:29:51.634Z,102750
2023-01-29T12:34:51.645Z,102740
2023-01-29T12:39:51.636Z,102740
2023-01-29T12:44:51.647Z,102730
2023-01-29T12:49:51.651Z,102720
2023-01-29T12:54:51.638Z,102700
2023-01-29T12:59:51.682Z,102690
2023-01-29T13:04:51.683Z,102680
2023-01-29T13:09:51.660Z,102660
2023-01-29T13:14:51.649Z,102650
2023-01-29T13:19:51.671Z,102640
2023-01-29T13:25:03.699Z,102640
2023-01-29T13:29:51.662Z,102620
2023-01-29T13:34:51.772Z,102610
2023-01-29T13:39:51.669Z,102610
2023-01-29T13:44:51.680Z,102600
2023-01-29T13:49:51.811Z,102590
2023-01-29T13:54:51.670Z,102590
2023-01-29T13:59:51.682Z,102590
2023-01-29T14:04:51.731Z,102580
2023-01-29T14:09:51.683Z,102570
2023-01-29T14:14:51.697Z,102570
2023-01-29T14:19:51.705Z,102560
2023-01-29T14:24:51.691Z,102550
2023-01-29T14:29:51.707Z,102550
2023-01-29T14:34:51.729Z,102540
2023-01-29T14:39:51.780Z,102540
2023-01-29T14:44:51.697Z,102540
2023-01-29T14:49:51.740Z,102540
2023-01-29T14:54:51.719Z,102540
2023-01-29T14:59:51.714Z,102530
2023-01-29T15:04:51.728Z,102520
2023-01-29T15:09:51.720Z,102520
2023-01-29T15:14:51.720Z,102510
2023-01-29T15:19:51.730Z,102510
2023-01-29T15:24:51.724Z,102500
2023-01-29T15:29:51.739Z,102500
2023-01-29T15:34:51.751Z,102500
2023-01-29T15:39:53.128Z,102480
2023-01-29T15:44:51.741Z,102470
2023-01-29T15:49:51.754Z,102460
2023-01-29T15:54:51.740Z,102460
2023-01-29T15:59:51.771Z,102470
2023-01-29T16:04:51.798Z,102470
2023-01-29T16:09:51.758Z,102460
2023-01-29T16:14:51.754Z,102460
2023-01-29T16:19:51.775Z,102460
2023-01-29T16:24:51.766Z,102450
2023-01-29T16:29:51.782Z,102450
2023-01-29T16:34:51.779Z,102450
2023-01-29T16:39:51.774Z,102450
2023-01-29T16:44:51.776Z,102460
2023-01-29T16:49:51.776Z,102450
2023-01-29T16:54:51.791Z,102440
2023-01-29T16:59:51.785Z,102440
2023-01-29T17:04:51.799Z,102430
2023-01-29T17:09:51.821Z,102430
2023-01-29T17:14:51.791Z,102430
2023-01-29T17:19:51.802Z,102430
2023-01-29T17:24:51.796Z,102420
2023-01-29T17:29:52.782Z,102410
2023-01-29T17:34:51.828Z,102410
2023-01-29T17:39:51.798Z,102410
2023-01-29T17:44:51.809Z,102410
2023-01-29T17:49:51.856Z,102410
2023-01-29T17:54:51.811Z,102390
2023-01-29T17:59:51.816Z,102380
2023-01-29T18:04:52.301Z,102370
2023-01-29T18:09:51.817Z,102360
2023-01-29T18:14:51.828Z,102350
2023-01-29T18:19:51.942Z,102360
2023-01-29T18:24:51.824Z,102340
2023-01-29T18:29:51.827Z,102330
2023-01-29T18:34:51.834Z,102330
2023-01-29T18:39:51.898Z,102320
2023-01-29T18:44:51.842Z,102310
2023-01-29T18:49:51.924Z,102310
2023-01-29T18:54:51.835Z,102290
2023-01-29T18:59:51.893Z,102270
2023-01-29T19:04:51.855Z,102270
2023-01-29T19:09:51.938Z,102270
2023-01-29T19:14:51.864Z,102250
2023-01-29T19:19:51.872Z,102230
2023-01-29T19:24:51.896Z,102230
2023-01-29T19:29:51.869Z,102230
2023-01-29T19:34:51.861Z,102210
2023-01-29T19:39:51.887Z,102200
2023-01-29T19:44:51.870Z,102210
2023-01-29T19:49:51.982Z,102210
2023-01-29T19:54:51.872Z,102200
2023-01-29T19:59:51.873Z,102200
2023-01-29T20:04:51.887Z,102180
2023-01-29T20:09:52.793Z,102160
2023-01-29T20:14:51.891Z,102170
2023-01-29T20:19:51.956Z,102180
2023-01-29T20:24:51.889Z,102160
2023-01-29T20:29:51.900Z,102150
2023-01-29T20:34:51.956Z,102160
2023-01-29T20:39:51.923Z,102170
2023-01-29T20:44:51.909Z,102160
2023-01-29T20:49:51.917Z,102140
2023-01-29T20:54:51.907Z,102150
2023-01-29T20:59:51.908Z,102170
2023-01-29T21:04:51.924Z,102140
2023-01-29T21:09:51.929Z,102150
2023-01-29T21:14:51.912Z,102140
2023-01-29T21:19:52.104Z,102150
2023-01-29T21:24:51.920Z,102140
2023-01-29T21:29:51.933Z,102140
2023-01-29T21:34:52.699Z,102150
2023-01-29T21:39:51.951Z,102150
2023-01-29T21:44:51.937Z,102150
2023-01-29T21:49:51.934Z,102140
2023-01-29T21:54:51.961Z,102120
2023-01-29T21:59:53.296Z,102110
2023-01-29T22:04:51.944Z,102060
2023-01-29T22:09:51.968Z,102050
2023-01-29T22:14:51.951Z,102040
2023-01-29T22:19:51.949Z,102010
2023-01-29T22:24:51.958Z,102010
2023-01-29T22:29:51.959Z,102000
2023-01-29T22:34:51.960Z,102000
2023-01-29T22:39:52.009Z,101980
2023-01-29T22:44:51.964Z,101980
2023-01-29T22:49:51.970Z,101970
2023-01-29T22:54:51.976Z,101960
2023-01-29T22:59:51.988Z,101950
2023-01-29T23:04:52.060Z,101940
2023-01-29T23:09:51.995Z,101940
2023-01-29T23:14:51.977Z,101950
2023-01-29T23:19:51.989Z,101960
2023-01-29T23:24:52.214Z,101960
2023-01-29T23:29:51.993Z,101950
2023-01-29T23:34:51.993Z,101950
2023-01-29T23:39:52.014Z,101940
2023-01-29T23:44:52.001Z,101920
2023-01-29T23:49:52.001Z,101890
2023-01-29T23:54:52.025Z,101880
2023-01-29T23:59:52.021Z,101880
